Time;durP1;ratioP1;P1;durP2;ratioP2;P2;SDS_P1;SDS_P2;PMS_P1;PMS_P2;Temp;Humidity;BMP_temperature;BMP_pressure;BME280_temperature;BME280_humidity;BME280_pressure;Samples;Min_cycle;Max_cycle;Signal;HPM_P1;HPM_P2
2023/03/21 00:02:02;;;;;;;14.47;12.73;;;12.50;1.00;;;;;;5050410;28;20449;-54
2023/03/21 00:04:27;;;;;;;14.37;11.73;;;12.50;1.00;;;;;;5049658;28;20439;-54
2023/03/21 00:06:53;;;;;;;18.63;12.80;;;12.50;1.00;;;;;;5047689;28;20516;-55
2023/03/21 00:09:19;;;;;;;17.90;13.93;;;12.60;1.00;;;;;;5047601;28;20184;-54
2023/03/21 00:11:45;;;;;;;19.10;13.90;;;12.50;1.00;;;;;;5045729;28;20606;-55
2023/03/21 00:14:13;;;;;;;13.90;11.30;;;12.60;1.00;;;;;;5045578;28;20985;-54
2023/03/21 00:16:39;;;;;;;16.40;12.30;;;12.40;1.00;;;;;;5051377;28;20996;-54
2023/03/21 00:19:06;;;;;;;15.87;12.60;;;12.50;1.00;;;;;;5049626;28;20549;-55
2023/03/21 00:21:37;;;;;;;18.17;12.00;;;12.50;1.00;;;;;;5050050;28;20185;-54
2023/03/21 00:24:04;;;;;;;20.23;13.40;;;12.40;1.00;;;;;;5052584;28;20644;-54
2023/03/21 00:26:30;;;;;;;19.27;15.20;;;12.50;1.00;;;;;;5052323;28;21089;-54
2023/03/21 00:28:56;;;;;;;17.83;13.53;;;12.60;1.00;;;;;;5050362;28;20473;-55
2023/03/21 00:31:22;;;;;;;17.03;12.83;;;12.50;1.00;;;;;;5049687;28;22304;-55
2023/03/21 00:33:48;;;;;;;18.30;14.57;;;12.50;1.00;;;;;;5046766;28;20461;-54
2023/03/21 00:36:14;;;;;;;18.23;14.20;;;12.60;1.00;;;;;;5050295;28;20439;-55
2023/03/21 00:38:40;;;;;;;21.73;14.33;;;12.50;1.00;;;;;;5054939;28;20639;-56
2023/03/21 00:41:08;;;;;;;16.57;13.90;;;12.60;1.00;;;;;;5049825;28;20447;-54
2023/03/21 00:43:34;;;;;;;18.97;15.47;;;12.50;1.00;;;;;;5046682;28;20215;-55
2023/03/21 00:45:59;;;;;;;19.00;13.83;;;12.40;1.00;;;;;;5049929;28;20446;-55
2023/03/21 00:48:26;;;;;;;18.60;15.20;;;12.30;1.00;;;;;;5051283;28;20533;-55
2023/03/21 00:50:54;;;;;;;17.67;14.47;;;12.30;1.00;;;;;;5045469;28;20616;-55
2023/03/21 00:53:20;;;;;;;22.17;15.47;;;12.40;1.00;;;;;;5049750;28;21120;-54
2023/03/21 00:55:46;;;;;;;22.17;17.30;;;12.40;1.00;;;;;;5050853;28;20455;-53
2023/03/21 00:58:12;;;;;;;24.53;16.70;;;12.50;1.00;;;;;;5050399;28;20453;-55
2023/03/21 01:00:38;;;;;;;21.70;16.23;;;12.40;1.00;;;;;;5051428;28;20481;-54
2023/03/21 01:03:08;;;;;;;25.53;17.50;;;12.30;1.00;;;;;;5049155;28;20180;-54
2023/03/21 01:08:22;;;;;;;22.80;17.97;;;12.20;1.00;;;;;;5051791;28;20480;-54
2023/03/21 01:10:49;;;;;;;23.70;17.80;;;12.10;1.00;;;;;;5049113;28;20439;-54
2023/03/21 01:13:16;;;;;;;26.00;18.50;;;12.00;1.00;;;;;;5048279;28;20443;-55
2023/03/21 01:15:44;;;;;;;26.83;18.47;;;11.90;1.00;;;;;;5048228;28;20465;-55
2023/03/21 01:18:10;;;;;;;28.70;18.80;;;11.90;1.00;;;;;;5050035;28;20461;-55
2023/03/21 01:20:36;;;;;;;24.70;18.70;;;11.90;1.00;;;;;;5048359;28;20478;-55
2023/03/21 01:23:02;;;;;;;24.97;18.07;;;12.00;1.00;;;;;;5048405;28;20443;-54
2023/03/21 01:25:27;;;;;;;24.93;18.00;;;12.00;1.00;;;;;;5050999;28;20527;-54
2023/03/21 01:27:56;;;;;;;26.90;18.27;;;12.00;1.00;;;;;;5047404;28;20674;-55
2023/03/21 01:30:21;;;;;;;24.20;18.33;;;12.00;1.00;;;;;;5051280;28;20193;-54
2023/03/21 01:32:47;;;;;;;28.40;19.83;;;11.90;1.00;;;;;;5047043;28;20547;-54
2023/03/21 01:35:13;;;;;;;28.80;20.00;;;11.90;1.00;;;;;;5048040;28;20203;-55
2023/03/21 01:37:38;;;;;;;27.53;19.67;;;11.80;1.00;;;;;;5047326;28;20201;-53
2023/03/21 01:40:05;;;;;;;26.20;20.33;;;11.90;1.00;;;;;;5048674;28;20225;-54
2023/03/21 01:42:31;;;;;;;27.43;20.70;;;12.00;1.00;;;;;;5046011;28;20216;-55
2023/03/21 01:45:05;;;;;;;26.30;18.47;;;12.00;1.00;;;;;;5046015;28;20817;-55
2023/03/21 01:47:31;;;;;;;22.20;18.37;;;12.00;1.00;;;;;;5045574;28;20453;-53
2023/03/21 01:50:00;;;;;;;26.10;19.77;;;11.80;1.00;;;;;;5048851;28;20454;-54
2023/03/21 01:52:31;;;;;;;26.80;18.27;;;11.70;1.00;;;;;;5047662;28;20189;-53
2023/03/21 01:54:58;;;;;;;24.60;18.90;;;11.80;1.00;;;;;;5045424;28;20848;-55
2023/03/21 01:57:31;;;;;;;29.90;20.90;;;11.90;1.00;;;;;;5048382;28;20889;-54
2023/03/21 02:00:11;;;;;;;23.57;18.37;;;11.90;1.00;;;;;;5045860;28;21124;-54
2023/03/21 02:02:49;;;;;;;26.17;19.27;;;11.90;1.00;;;;;;5049101;28;20446;-54
2023/03/21 02:05:19;;;;;;;27.27;18.87;;;12.00;1.00;;;;;;5049318;28;21534;-54
2023/03/21 02:07:45;;;;;;;28.00;21.43;;;12.00;1.00;;;;;;5050840;28;20770;-54
2023/03/21 02:10:14;;;;;;;25.00;19.27;;;12.00;1.00;;;;;;5047157;28;20450;-54
2023/03/21 02:12:40;;;;;;;26.00;19.33;;;12.00;1.00;;;;;;5049371;28;20447;-55
2023/03/21 02:15:07;;;;;;;25.87;19.60;;;12.00;1.00;;;;;;5049794;28;21017;-54
2023/03/21 02:17:52;;;;;;;25.37;20.70;;;12.00;1.00;;;;;;5049314;28;20482;-53
2023/03/21 02:20:49;;;;;;;29.17;19.57;;;12.00;1.00;;;;;;5046319;28;20463;-55
2023/03/21 02:23:32;;;;;;;26.27;20.00;;;12.00;1.00;;;;;;5049849;28;20447;-54
2023/03/21 02:26:13;;;;;;;28.43;20.40;;;11.90;1.00;;;;;;5048114;28;20442;-54
2023/03/21 02:28:46;;;;;;;27.13;20.40;;;11.90;1.00;;;;;;5048832;28;20433;-54
2023/03/21 02:31:20;;;;;;;29.30;21.00;;;12.00;1.00;;;;;;5050085;28;20491;-54
2023/03/21 02:33:59;;;;;;;26.10;18.90;;;12.00;1.00;;;;;;5045937;28;20538;-55
2023/03/21 02:36:57;;;;;;;27.60;19.37;;;11.90;1.00;;;;;;5046310;28;20792;-53
2023/03/21 02:39:41;;;;;;;27.67;19.73;;;11.80;1.00;;;;;;5045718;28;20474;-54
2023/03/21 02:42:23;;;;;;;24.07;19.30;;;11.60;1.00;;;;;;5047744;28;20793;-54
2023/03/21 02:45:00;;;;;;;26.83;20.00;;;11.60;1.00;;;;;;5045153;28;21011;-54
2023/03/21 02:47:41;;;;;;;27.73;20.10;;;11.50;1.00;;;;;;5045111;28;20443;-55
2023/03/21 02:50:14;;;;;;;23.43;19.03;;;11.40;1.00;;;;;;5049339;28;20438;-54
2023/03/21 02:52:44;;;;;;;21.20;17.77;;;11.40;1.00;;;;;;5040202;28;20513;-54
2023/03/21 02:55:31;;;;;;;24.93;20.23;;;11.40;1.00;;;;;;5058918;28;20558;-54
2023/03/21 02:57:58;;;;;;;26.50;20.40;;;11.50;1.00;;;;;;5044684;28;21003;-53
2023/03/21 03:00:32;;;;;;;28.33;20.73;;;11.30;1.00;;;;;;5047166;28;20498;-56
2023/03/21 03:02:58;;;;;;;29.40;22.17;;;11.30;1.00;;;;;;5049449;28;20434;-55
2023/03/21 03:05:28;;;;;;;30.97;22.13;;;11.20;1.00;;;;;;5047924;28;20446;-53
2023/03/21 03:08:12;;;;;;;27.40;19.73;;;11.00;1.00;;;;;;5047136;28;20488;-54
2023/03/21 03:10:55;;;;;;;27.37;20.53;;;10.70;1.00;;;;;;5045154;28;20447;-54
2023/03/21 03:14:17;;;;;;;30.70;22.70;;;10.70;1.00;;;;;;5046696;28;20446;-54
2023/03/21 03:16:55;;;;;;;26.80;19.67;;;10.70;1.00;;;;;;4985634;28;20456;-56
2023/03/21 03:19:29;;;;;;;28.77;21.67;;;10.70;1.00;;;;;;4983550;28;21014;-54
2023/03/21 03:22:26;;;;;;;29.30;21.70;;;10.70;1.00;;;;;;5029206;28;20856;-54
2023/03/21 03:25:01;;;;;;;27.47;20.63;;;10.70;1.00;;;;;;5046006;28;20864;-54
2023/03/21 03:27:35;;;;;;;32.13;23.30;;;10.70;1.00;;;;;;5047775;28;20443;-54
2023/03/21 03:30:04;;;;;;;31.83;22.40;;;10.80;1.00;;;;;;5048943;28;20464;-54
2023/03/21 03:32:35;;;;;;;27.80;22.10;;;10.80;1.00;;;;;;5056680;28;20576;-53
2023/03/21 03:35:03;;;;;;;27.20;22.30;;;10.80;1.00;;;;;;5050124;28;20556;-54
2023/03/21 03:37:33;;;;;;;29.63;23.10;;;10.80;1.00;;;;;;5048857;28;20462;-53
2023/03/21 03:40:09;;;;;;;29.30;21.70;;;10.80;1.00;;;;;;5043927;28;20487;-56
2023/03/21 03:42:41;;;;;;;27.30;21.80;;;10.80;1.00;;;;;;5044081;28;20958;-54
2023/03/21 03:45:09;;;;;;;29.50;22.80;;;10.90;1.00;;;;;;5046015;28;20508;-54
2023/03/21 03:47:46;;;;;;;27.10;21.50;;;10.90;1.00;;;;;;5047772;28;20454;-54
2023/03/21 03:50:19;;;;;;;26.57;20.97;;;11.00;1.00;;;;;;5046558;28;20446;-54
2023/03/21 03:52:55;;;;;;;30.30;21.97;;;11.00;1.00;;;;;;5042148;28;20536;-54
2023/03/21 03:55:25;;;;;;;28.40;21.07;;;11.00;1.00;;;;;;5046135;28;20474;-53
2023/03/21 03:57:52;;;;;;;26.57;21.13;;;11.00;1.00;;;;;;5046516;28;20443;-54
2023/03/21 04:00:19;;;;;;;27.47;20.83;;;11.00;1.00;;;;;;5047988;28;20850;-54
2023/03/21 04:02:48;;;;;;;30.07;22.10;;;11.00;1.00;;;;;;5049452;28;20447;-53
2023/03/21 04:05:14;;;;;;;29.33;22.20;;;11.10;1.00;;;;;;5047278;28;20936;-53
2023/03/21 04:07:40;;;;;;;27.00;22.03;;;11.10;1.00;;;;;;5046500;28;20497;-54
2023/03/21 04:10:06;;;;;;;27.70;21.03;;;11.10;1.00;;;;;;5047791;28;20458;-56
2023/03/21 04:12:31;;;;;;;30.70;21.70;;;11.20;1.00;;;;;;5046969;28;20630;-54
2023/03/21 04:14:57;;;;;;;28.23;22.43;;;11.20;1.00;;;;;;5045979;28;20445;-53
2023/03/21 04:17:22;;;;;;;28.13;20.87;;;11.30;1.00;;;;;;5047623;28;20192;-55
2023/03/21 04:19:50;;;;;;;29.17;21.63;;;11.20;1.00;;;;;;5047087;28;20556;-54
2023/03/21 04:22:16;;;;;;;28.67;21.70;;;11.10;1.00;;;;;;5047602;28;20185;-55
2023/03/21 04:24:42;;;;;;;30.30;22.80;;;11.20;1.00;;;;;;5046075;28;20454;-54
2023/03/21 04:27:08;;;;;;;27.40;22.27;;;11.20;1.00;;;;;;5046626;28;20442;-55
2023/03/21 04:29:33;;;;;;;32.47;22.67;;;11.20;1.00;;;;;;5046655;28;20506;-54
2023/03/21 04:32:00;;;;;;;26.53;21.00;;;11.10;1.00;;;;;;5046645;28;20231;-53
2023/03/21 04:34:27;;;;;;;28.43;22.10;;;11.00;1.00;;;;;;5043864;28;20188;-54
2023/03/21 04:36:55;;;;;;;28.63;21.93;;;11.10;1.00;;;;;;5046117;28;20489;-54
2023/03/21 04:39:23;;;;;;;30.83;23.97;;;11.00;1.00;;;;;;5043561;28;20466;-54
2023/03/21 04:41:49;;;;;;;34.53;22.93;;;10.90;1.00;;;;;;5045156;28;20529;-54
2023/03/21 04:44:16;;;;;;;32.00;22.10;;;11.00;1.00;;;;;;5047126;28;20485;-56
2023/03/21 04:46:42;;;;;;;31.27;23.17;;;11.10;1.00;;;;;;5046108;28;20255;-53
2023/03/21 04:49:09;;;;;;;31.07;21.37;;;10.90;1.00;;;;;;5045546;28;20455;-54
2023/03/21 04:51:35;;;;;;;29.23;22.67;;;10.90;1.00;;;;;;5047574;28;20533;-53
2023/03/21 04:54:01;;;;;;;30.13;22.60;;;10.90;1.00;;;;;;5045791;28;20833;-55
2023/03/21 04:56:32;;;;;;;29.13;23.30;;;10.90;1.00;;;;;;5045819;28;20453;-54
2023/03/21 04:59:00;;;;;;;33.87;24.80;;;10.90;1.00;;;;;;5047022;28;20545;-53
2023/03/21 05:01:29;;;;;;;27.97;22.80;;;11.00;1.00;;;;;;5049045;28;20458;-54
2023/03/21 05:03:56;;;;;;;29.63;23.27;;;11.00;1.00;;;;;;5050230;28;20956;-55
2023/03/21 05:06:22;;;;;;;31.70;22.43;;;11.00;1.00;;;;;;5053242;28;20447;-53
2023/03/21 05:08:48;;;;;;;36.83;24.30;;;11.10;1.00;;;;;;5061553;28;20449;-55
2023/03/21 05:11:14;;;;;;;32.40;23.90;;;11.10;1.00;;;;;;5049903;28;20564;-54
2023/03/21 05:13:40;;;;;;;32.50;23.60;;;11.10;1.00;;;;;;5049778;28;20197;-54
2023/03/21 05:16:06;;;;;;;31.37;22.00;;;11.10;1.00;;;;;;5050505;28;20470;-55
2023/03/21 05:18:37;;;;;;;33.50;24.40;;;11.00;1.00;;;;;;5050146;28;20550;-55
2023/03/21 05:21:06;;;;;;;30.17;22.67;;;11.10;1.00;;;;;;5047366;28;20883;-53
2023/03/21 05:23:37;;;;;;;32.50;24.10;;;11.00;1.00;;;;;;5047393;28;20495;-54
2023/03/21 05:26:04;;;;;;;31.17;25.47;;;11.00;1.00;;;;;;5049505;28;20439;-53
2023/03/21 05:28:30;;;;;;;32.57;25.87;;;11.00;1.00;;;;;;5050654;28;20443;-54
2023/03/21 05:30:56;;;;;;;29.60;22.53;;;11.00;1.00;;;;;;5050669;28;20462;-54
2023/03/21 05:33:22;;;;;;;25.90;19.50;;;11.10;1.00;;;;;;5043470;28;20446;-54
2023/03/21 05:35:50;;;;;;;24.20;19.07;;;11.10;1.00;;;;;;5055327;28;20210;-55
2023/03/21 05:38:16;;;;;;;25.10;17.60;;;11.10;1.00;;;;;;5048907;28;20188;-54
2023/03/21 05:40:46;;;;;;;21.53;15.43;;;11.10;1.00;;;;;;5047232;28;20476;-54
2023/03/21 05:43:11;;;;;;;24.67;16.50;;;11.40;1.00;;;;;;5044980;28;20200;-55
2023/03/21 05:45:37;;;;;;;17.80;13.60;;;11.10;1.00;;;;;;5056401;28;20451;-55
2023/03/21 05:48:03;;;;;;;21.57;14.43;;;11.10;1.00;;;;;;5048253;28;20608;-54
2023/03/21 05:50:28;;;;;;;20.80;13.80;;;11.10;1.00;;;;;;5048340;28;20173;-55
2023/03/21 05:52:54;;;;;;;16.87;12.63;;;11.10;1.00;;;;;;5046493;28;20211;-52
2023/03/21 05:55:20;;;;;;;19.20;11.60;;;11.10;1.00;;;;;;5047078;28;20224;-54
2023/03/21 05:57:45;;;;;;;14.27;11.40;;;11.10;1.00;;;;;;5049015;28;20196;-54
2023/03/21 06:00:11;;;;;;;16.10;10.80;;;11.10;1.00;;;;;;5046656;28;20656;-55
2023/03/21 06:02:38;;;;;;;13.37;9.43;;;11.00;1.00;;;;;;5048188;28;20275;-54
2023/03/21 06:05:05;;;;;;;14.63;11.03;;;10.90;1.00;;;;;;5048849;28;20765;-52
2023/03/21 06:07:32;;;;;;;18.13;12.23;;;10.90;1.00;;;;;;5047107;28;20880;-55
2023/03/21 06:09:57;;;;;;;14.80;10.50;;;11.00;1.00;;;;;;5046293;28;20462;-53
2023/03/21 06:12:23;;;;;;;15.03;10.37;;;11.00;1.00;;;;;;5047325;28;20447;-53
2023/03/21 06:14:49;;;;;;;14.03;10.33;;;11.00;1.00;;;;;;5046436;28;20191;-55
2023/03/21 06:17:14;;;;;;;12.80;8.90;;;11.10;1.00;;;;;;5051207;28;20204;-57
2023/03/21 06:19:40;;;;;;;11.33;8.80;;;11.20;1.00;;;;;;5045729;28;20319;-54
2023/03/21 06:22:06;;;;;;;18.97;11.07;;;11.40;1.00;;;;;;5045146;28;20191;-53
2023/03/21 06:24:32;;;;;;;16.50;10.77;;;11.40;1.00;;;;;;5047289;28;20219;-54
2023/03/21 06:26:57;;;;;;;14.27;10.17;;;11.60;1.00;;;;;;5048427;28;21077;-53
2023/03/21 06:29:23;;;;;;;13.40;9.37;;;11.70;1.00;;;;;;5048047;28;20299;-55
2023/03/21 06:31:49;;;;;;;12.70;8.43;;;11.90;1.00;;;;;;5050742;28;20527;-53
2023/03/21 06:34:14;;;;;;;15.90;8.00;;;12.00;1.00;;;;;;5054820;28;20193;-54
2023/03/21 06:36:43;;;;;;;11.27;8.27;;;12.10;1.00;;;;;;5045820;28;20193;-54
2023/03/21 06:39:09;;;;;;;11.57;8.03;;;12.40;1.00;;;;;;5046206;28;20287;-54
2023/03/21 06:41:35;;;;;;;10.10;7.23;;;12.20;1.00;;;;;;5046174;28;20453;-55
2023/03/21 06:44:01;;;;;;;8.77;7.47;;;12.20;1.00;;;;;;5048856;28;20446;-56
2023/03/21 06:46:27;;;;;;;13.50;9.10;;;12.10;1.00;;;;;;5052537;28;20191;-54
2023/03/21 06:48:52;;;;;;;9.70;7.40;;;12.00;1.00;;;;;;5048365;28;21017;-55
2023/03/21 06:51:18;;;;;;;9.13;7.77;;;11.90;1.00;;;;;;5042031;28;20314;-54
2023/03/21 06:53:43;;;;;;;10.93;8.10;;;11.80;1.00;;;;;;5045069;28;20220;-53
2023/03/21 06:56:11;;;;;;;9.90;7.30;;;11.80;1.00;;;;;;5046537;28;20275;-55
2023/03/21 06:58:37;;;;;;;10.10;7.63;;;11.80;1.00;;;;;;5048227;28;20315;-55
2023/03/21 07:01:04;;;;;;;9.97;7.37;;;11.80;1.00;;;;;;5051666;28;20553;-53
2023/03/21 07:03:30;;;;;;;10.23;7.30;;;11.80;1.00;;;;;;5049948;28;20446;-54
2023/03/21 07:05:56;;;;;;;10.00;7.00;;;11.90;1.00;;;;;;5044504;28;20500;-54
2023/03/21 07:08:22;;;;;;;9.57;7.60;;;12.00;1.00;;;;;;5045546;28;20450;-53
2023/03/21 07:10:48;;;;;;;10.73;7.10;;;12.10;1.00;;;;;;5050632;28;20464;-53
2023/03/21 07:13:14;;;;;;;8.37;7.37;;;12.30;1.00;;;;;;5048085;28;20443;-53
2023/03/21 07:15:40;;;;;;;11.83;8.10;;;12.60;1.00;;;;;;5046951;28;20229;-54
2023/03/21 07:18:07;;;;;;;9.63;7.57;;;12.70;1.00;;;;;;5051644;28;20429;-53
2023/03/21 07:20:34;;;;;;;9.70;7.57;;;12.80;1.00;;;;;;5046252;28;20231;-63
2023/03/21 07:23:00;;;;;;;9.87;7.23;;;12.90;1.00;;;;;;5041954;28;20494;-54
2023/03/21 07:25:26;;;;;;;9.50;6.27;;;12.90;1.00;;;;;;5047961;28;20952;-55
2023/03/21 07:27:52;;;;;;;14.10;7.27;;;13.00;1.00;;;;;;5048215;28;20184;-54
2023/03/21 07:30:18;;;;;;;11.63;7.90;;;12.90;1.00;;;;;;5048095;28;20820;-54
2023/03/21 07:32:44;;;;;;;9.90;7.23;;;12.90;1.00;;;;;;5048241;28;20188;-54
2023/03/21 07:35:12;;;;;;;10.37;7.60;;;12.80;1.00;;;;;;5049213;28;20459;-54
2023/03/21 07:37:39;;;;;;;9.77;7.30;;;12.80;1.00;;;;;;5050945;28;20421;-55
2023/03/21 07:40:09;;;;;;;12.30;8.60;;;12.70;1.00;;;;;;5053826;28;20480;-55
2023/03/21 07:42:41;;;;;;;13.67;7.77;;;12.60;1.00;;;;;;5045308;28;20443;-54
2023/03/21 07:45:08;;;;;;;9.57;8.00;;;12.40;1.00;;;;;;5047366;28;20478;-54
2023/03/21 07:47:34;;;;;;;11.30;9.23;;;12.40;1.00;;;;;;5047542;28;20485;-55
2023/03/21 07:50:00;;;;;;;11.10;8.73;;;12.40;1.00;;;;;;5046393;28;20517;-54
2023/03/21 07:52:26;;;;;;;11.30;9.70;;;12.50;1.00;;;;;;5046008;28;20824;-55
2023/03/21 07:54:51;;;;;;;15.70;9.80;;;12.60;1.00;;;;;;5044823;28;20252;-54
2023/03/21 07:57:17;;;;;;;13.60;8.90;;;12.60;1.00;;;;;;5046921;28;20493;-53
2023/03/21 07:59:43;;;;;;;10.90;8.03;;;12.60;1.00;;;;;;5045644;28;20216;-55
2023/03/21 08:02:16;;;;;;;11.20;7.23;;;12.40;1.00;;;;;;5044958;28;20273;-54
2023/03/21 08:04:42;;;;;;;10.57;8.23;;;12.50;1.00;;;;;;5044842;28;20188;-54
2023/03/21 08:07:07;;;;;;;10.33;8.07;;;12.60;1.00;;;;;;5047810;28;20459;-53
2023/03/21 08:09:33;;;;;;;11.97;9.30;;;12.70;1.00;;;;;;5046520;28;20421;-54
2023/03/21 08:11:59;;;;;;;12.20;8.20;;;12.90;1.00;;;;;;5046692;28;20455;-53
2023/03/21 08:14:25;;;;;;;13.47;8.00;;;13.20;1.00;;;;;;5046570;28;20200;-53
2023/03/21 08:16:50;;;;;;;11.37;7.67;;;13.40;1.00;;;;;;5045958;28;20215;-53
2023/03/21 08:19:19;;;;;;;11.13;8.23;;;13.60;1.00;;;;;;5050576;28;20226;-54
2023/03/21 08:21:45;;;;;;;13.57;8.30;;;13.70;1.00;;;;;;5046640;28;20212;-53
2023/03/21 08:24:10;;;;;;;10.53;7.80;;;13.80;1.00;;;;;;5045936;28;20473;-53
2023/03/21 08:26:37;;;;;;;12.00;8.90;;;13.80;1.00;;;;;;5044912;28;20193;-55
2023/03/21 08:29:02;;;;;;;9.70;7.20;;;13.80;1.00;;;;;;5046483;28;20250;-54
2023/03/21 08:31:28;;;;;;;12.50;8.20;;;13.80;1.00;;;;;;5038372;28;20844;-53
2023/03/21 08:33:54;;;;;;;11.77;6.90;;;13.60;1.00;;;;;;5041410;28;20295;-54
2023/03/21 08:36:22;;;;;;;14.60;8.37;;;13.60;1.00;;;;;;5049495;28;20204;-53
2023/03/21 08:38:47;;;;;;;11.80;7.60;;;13.70;1.00;;;;;;5051105;28;20446;-54
2023/03/21 08:41:14;;;;;;;11.80;7.80;;;13.90;1.00;;;;;;5051520;28;20474;-56
2023/03/21 08:43:40;;;;;;;8.83;7.23;;;14.00;1.00;;;;;;5049762;28;20183;-54
2023/03/21 08:46:06;;;;;;;12.73;7.60;;;14.00;1.00;;;;;;5050997;28;20495;-55
2023/03/21 08:48:32;;;;;;;13.10;7.67;;;14.00;1.00;;;;;;5049512;28;20195;-56
2023/03/21 08:50:59;;;;;;;11.27;6.50;;;13.90;1.00;;;;;;5046344;28;20446;-55
2023/03/21 08:53:25;;;;;;;9.87;7.10;;;14.00;1.00;;;;;;5048927;28;20431;-55
2023/03/21 08:55:51;;;;;;;10.60;6.67;;;14.30;1.00;;;;;;5048206;28;20443;-56
2023/03/21 08:58:17;;;;;;;11.63;7.97;;;14.20;1.00;;;;;;5049090;28;20198;-55
2023/03/21 09:00:42;;;;;;;9.30;6.50;;;14.20;1.00;;;;;;5045414;28;21017;-53
2023/03/21 09:03:08;;;;;;;10.50;6.47;;;14.20;1.00;;;;;;5043845;28;20424;-56
2023/03/21 09:05:35;;;;;;;8.50;6.63;;;14.20;1.00;;;;;;5051933;28;20211;-56
2023/03/21 09:08:02;;;;;;;11.37;6.90;;;14.20;1.00;;;;;;5047774;28;20185;-57
2023/03/21 09:10:28;;;;;;;8.60;6.63;;;14.00;1.00;;;;;;5050740;28;20486;-56
2023/03/21 09:12:55;;;;;;;10.10;6.90;;;14.20;1.00;;;;;;5060505;28;20438;-55
2023/03/21 09:15:23;;;;;;;9.63;6.90;;;14.20;1.00;;;;;;5047166;28;20549;-55
2023/03/21 09:17:51;;;;;;;9.37;6.30;;;14.40;1.00;;;;;;5047109;28;20451;-56
2023/03/21 09:20:24;;;;;;;8.10;6.00;;;14.40;1.00;;;;;;5046021;28;20482;-56
2023/03/21 09:22:53;;;;;;;8.50;6.13;;;14.70;1.00;;;;;;5042772;28;20509;-56
2023/03/21 09:25:20;;;;;;;5.93;5.33;;;14.70;1.00;;;;;;5043658;28;20451;-54
2023/03/21 09:27:45;;;;;;;6.47;5.20;;;14.70;1.00;;;;;;5056573;28;20438;-54
2023/03/21 09:30:17;;;;;;;10.13;6.40;;;14.70;1.00;;;;;;5046735;28;20605;-55
2023/03/21 09:32:46;;;;;;;7.00;6.00;;;14.60;1.00;;;;;;5048161;28;20195;-55
2023/03/21 09:35:11;;;;;;;5.57;5.03;;;14.70;1.00;;;;;;5067256;28;20524;-53
2023/03/21 09:37:41;;;;;;;6.50;4.83;;;14.90;1.00;;;;;;5052331;28;20477;-54
2023/03/21 09:40:18;;;;;;;6.70;5.00;;;15.10;1.00;;;;;;5051214;28;20216;-52
2023/03/21 09:43:01;;;;;;;6.57;5.30;;;15.00;1.00;;;;;;5051239;28;20482;-54
2023/03/21 09:45:38;;;;;;;5.30;4.80;;;14.90;1.00;;;;;;5050007;28;20969;-52
2023/03/21 09:48:16;;;;;;;6.17;4.50;;;14.80;1.00;;;;;;5054719;28;20458;-53
2023/03/21 09:50:42;;;;;;;6.97;4.60;;;14.30;1.00;;;;;;5054443;28;20525;-53
2023/03/21 09:53:15;;;;;;;7.60;5.40;;;14.40;1.00;;;;;;5050991;28;20459;-54
2023/03/21 09:55:41;;;;;;;5.87;5.00;;;14.50;1.00;;;;;;5050953;28;20512;-55
2023/03/21 09:58:15;;;;;;;9.90;5.70;;;14.70;1.00;;;;;;5051017;28;20450;-54
2023/03/21 10:00:44;;;;;;;8.80;5.50;;;14.90;1.00;;;;;;5050016;28;21010;-55
2023/03/21 10:03:17;;;;;;;7.83;5.60;;;14.90;1.00;;;;;;5050511;28;20526;-54
2023/03/21 10:05:44;;;;;;;6.13;4.73;;;14.90;1.00;;;;;;5064312;28;20446;-54
2023/03/21 10:08:23;;;;;;;6.70;6.00;;;15.00;1.00;;;;;;5070861;28;20466;-57
2023/03/21 10:10:52;;;;;;;7.53;6.63;;;15.20;1.00;;;;;;5070825;28;21011;-55
2023/03/21 10:13:36;;;;;;;5.90;5.40;;;15.50;1.00;;;;;;5070000;28;20499;-56
2023/03/21 10:16:27;;;;;;;7.03;6.33;;;16.00;1.00;;;;;;5051272;28;20508;-55
2023/03/21 10:18:54;;;;;;;6.10;5.43;;;16.10;1.00;;;;;;5021694;28;20979;-52
2023/03/21 10:21:25;;;;;;;7.07;5.50;;;15.80;1.00;;;;;;5049568;28;20452;-54
2023/03/21 10:23:54;;;;;;;8.10;5.63;;;15.90;1.00;;;;;;5064425;28;20445;-54
2023/03/21 10:26:23;;;;;;;6.87;5.70;;;16.00;1.00;;;;;;5064685;28;20465;-54
2023/03/21 10:28:49;;;;;;;6.40;5.50;;;16.20;1.00;;;;;;5050643;28;20470;-53
2023/03/21 10:31:20;;;;;;;8.40;5.27;;;16.50;1.00;;;;;;5050720;28;20888;-55
2023/03/21 10:33:48;;;;;;;7.90;5.70;;;16.60;1.00;;;;;;5048646;28;20451;-55
2023/03/21 10:36:24;;;;;;;6.80;5.50;;;16.60;1.00;;;;;;5056435;28;20460;-53
2023/03/21 10:38:53;;;;;;;5.80;5.00;;;16.60;1.00;;;;;;5053345;28;20446;-54
2023/03/21 10:41:20;;;;;;;5.90;4.03;;;16.60;1.00;;;;;;5050162;28;20556;-56
2023/03/21 10:44:02;;;;;;;4.20;3.30;;;16.60;1.00;;;;;;5056260;28;20447;-54
2023/03/21 10:46:27;;;;;;;5.87;5.10;;;16.60;1.00;;;;;;5065279;28;20439;-55
2023/03/21 10:48:53;;;;;;;5.40;4.17;;;16.50;1.00;;;;;;5050469;28;20435;-53
2023/03/21 10:51:29;;;;;;;7.20;4.43;;;16.70;1.00;;;;;;5050239;28;20189;-54
2023/03/21 10:53:58;;;;;;;5.33;4.83;;;16.90;1.00;;;;;;5049048;28;20511;-53
2023/03/21 10:56:29;;;;;;;5.30;4.80;;;17.00;1.00;;;;;;5050298;28;20491;-52
2023/03/21 10:58:58;;;;;;;8.13;4.60;;;16.90;1.00;;;;;;5049344;28;20439;-54
2023/03/21 11:01:55;;;;;;;4.27;3.80;;;17.10;1.00;;;;;;5049970;28;20558;-54
2023/03/21 11:04:26;;;;;;;4.90;3.80;;;17.30;1.00;;;;;;5036920;28;20530;-57
2023/03/21 11:06:58;;;;;;;4.97;3.67;;;17.30;1.00;;;;;;5055418;28;20477;-55
2023/03/21 11:09:41;;;;;;;4.77;4.27;;;17.30;1.00;;;;;;5048536;28;20807;-54
2023/03/21 11:12:12;;;;;;;5.53;3.90;;;17.50;1.00;;;;;;5049384;28;20439;-56
2023/03/21 11:14:40;;;;;;;5.27;4.07;;;17.80;1.00;;;;;;5049563;28;21005;-54
2023/03/21 11:17:15;;;;;;;7.30;4.40;;;17.90;1.00;;;;;;5049789;28;20439;-54
2023/03/21 11:19:59;;;;;;;4.83;4.33;;;17.50;1.00;;;;;;5049491;28;20469;-55
2023/03/21 11:22:29;;;;;;;4.20;3.60;;;17.60;1.00;;;;;;5049442;28;20911;-52
2023/03/21 11:25:00;;;;;;;3.67;3.37;;;17.80;1.00;;;;;;5049312;28;20410;-54
2023/03/21 11:27:28;;;;;;;4.47;3.63;;;17.90;1.00;;;;;;5049260;28;20441;-54
2023/03/21 11:29:56;;;;;;;5.50;4.47;;;18.10;1.00;;;;;;5055429;28;20500;-53
2023/03/21 11:32:30;;;;;;;6.47;5.77;;;18.00;1.00;;;;;;5069185;28;20481;-53
2023/03/21 11:35:19;;;;;;;3.93;3.53;;;18.30;1.00;;;;;;5066145;28;20517;-52
2023/03/21 11:37:50;;;;;;;3.90;3.50;;;18.40;1.00;;;;;;5054573;28;20801;-55
2023/03/21 11:40:18;;;;;;;4.57;4.17;;;18.60;1.00;;;;;;5049246;28;20609;-55
2023/03/21 11:42:50;;;;;;;3.37;3.00;;;18.80;1.00;;;;;;5049265;28;20454;-54
2023/03/21 11:45:20;;;;;;;4.13;3.53;;;19.10;1.00;;;;;;5048918;28;20458;-53
2023/03/21 11:47:48;;;;;;;5.10;4.10;;;19.30;1.00;;;;;;5048951;28;20439;-53
2023/03/21 11:50:32;;;;;;;3.80;3.43;;;19.40;1.00;;;;;;5045112;28;20467;-53
2023/03/21 11:53:16;;;;;;;4.20;3.80;;;19.50;1.00;;;;;;5047010;28;20479;-55
2023/03/21 11:56:00;;;;;;;3.70;3.40;;;19.60;1.00;;;;;;5047723;28;20802;-53
2023/03/21 11:58:44;;;;;;;7.20;3.90;;;19.90;1.00;;;;;;5044609;28;20429;-55
2023/03/21 12:01:26;;;;;;;3.50;3.20;;;19.80;1.00;;;;;;5041954;28;20482;-54
2023/03/21 12:04:03;;;;;;;4.93;3.60;;;19.80;1.00;;;;;;5046834;28;20524;-54
2023/03/21 12:06:51;;;;;;;4.13;3.77;;;19.80;1.00;;;;;;5046281;28;20413;-54
2023/03/21 12:09:54;;;;;;;3.80;3.40;;;20.00;1.00;;;;;;5045685;28;20474;-54
2023/03/21 12:12:28;;;;;;;7.10;4.40;;;19.50;1.00;;;;;;5046806;28;20442;-55
2023/03/21 12:14:56;;;;;;;7.03;4.47;;;19.20;1.00;;;;;;5051191;28;20525;-55
2023/03/21 12:18:07;;;;;;;5.13;4.63;;;18.40;1.00;;;;;;5052768;28;20426;-54
2023/03/21 12:20:49;;;;;;;5.47;4.43;;;17.70;1.00;;;;;;5044529;28;20489;-54
2023/03/21 12:23:39;;;;;;;10.67;6.40;;;17.50;1.00;;;;;;5051321;28;20873;-57
2023/03/21 12:26:11;;;;;;;4.63;4.23;;;17.50;1.00;;;;;;5043764;28;20541;-56
2023/03/21 12:28:39;;;;;;;6.57;4.20;;;17.70;1.00;;;;;;5054092;28;20925;-56
2023/03/21 12:31:25;;;;;;;5.33;4.23;;;17.60;1.00;;;;;;5055178;28;20474;-55
2023/03/21 12:34:22;;;;;;;5.20;4.70;;;18.30;1.00;;;;;;5049106;28;20820;-54
2023/03/21 12:37:18;;;;;;;6.53;4.90;;;18.50;1.00;;;;;;5050849;28;20450;-56
2023/03/21 12:39:47;;;;;;;7.10;4.60;;;18.30;1.00;;;;;;5055261;28;20473;-53
2023/03/21 12:42:28;;;;;;;6.30;5.10;;;18.50;1.00;;;;;;5051067;28;20988;-54
2023/03/21 12:45:03;;;;;;;5.37;3.97;;;18.60;1.00;;;;;;5043035;28;20413;-55
2023/03/21 12:47:33;;;;;;;7.60;3.70;;;18.70;1.00;;;;;;5052151;28;20442;-54
2023/03/21 12:50:12;;;;;;;5.50;4.20;;;18.90;1.00;;;;;;5066543;28;20566;-54
2023/03/21 12:52:48;;;;;;;8.83;4.07;;;19.10;1.00;;;;;;5049647;28;20450;-53
2023/03/21 12:55:20;;;;;;;6.50;4.10;;;19.30;1.00;;;;;;5061693;28;20478;-55
2023/03/21 12:58:00;;;;;;;5.30;3.90;;;19.30;1.00;;;;;;5057269;28;20448;-54
2023/03/21 13:00:43;;;;;;;5.23;3.90;;;19.10;1.00;;;;;;5049883;28;20832;-54
2023/03/21 13:03:23;;;;;;;4.90;3.60;;;19.00;1.00;;;;;;5057954;28;20451;-56
2023/03/21 13:05:57;;;;;;;4.50;4.10;;;19.10;1.00;;;;;;5063364;28;20447;-54